Time;durP1;ratioP1;P1;durP2;ratioP2;P2;SDS_P1;SDS_P2;PMS_P1;PMS_P2;Temp;Humidity;BMP_temperature;BMP_pressure;BME280_temperature;BME280_humidity;BME280_pressure;Samples;Min_cycle;Max_cycle;Signal;HPM_P1;HPM_P2
2021/07/07 00:00:50;;;;;;;3.55;1.20;;;;;;;29.94;38.33;96502.50;4943264;28;20076;-34
2021/07/07 00:03:16;;;;;;;3.03;1.10;;;;;;;29.94;38.14;96502.50;4943156;28;20038;-30
2021/07/07 00:05:41;;;;;;;2.42;1.38;;;;;;;29.94;38.48;96497.22;4947869;28;20820;-30
2021/07/07 00:08:07;;;;;;;1.60;0.95;;;;;;;29.95;38.31;96498.09;4947761;28;20113;-33
2021/07/07 00:10:35;;;;;;;2.75;0.90;;;;;;;29.96;38.63;96505.91;4954406;28;20445;-28
2021/07/07 00:13:02;;;;;;;2.90;1.13;;;;;;;29.94;38.20;96510.44;4946468;28;20227;-28
2021/07/07 00:15:31;;;;;;;2.90;1.33;;;;;;;29.94;37.99;96513.09;4943632;28;20599;-28
2021/07/07 00:17:57;;;;;;;1.88;0.90;;;;;;;29.95;38.16;96509.47;4947059;28;20034;-31
2021/07/07 00:20:22;;;;;;;2.70;1.15;;;;;;;29.93;38.11;96511.41;4942835;28;20042;-27
2021/07/07 00:22:48;;;;;;;2.85;1.10;;;;;;;29.94;38.13;96507.81;4942366;28;20068;-33
2021/07/07 00:25:13;;;;;;;2.13;0.93;;;;;;;29.95;38.64;96508.66;4926168;28;20081;-30
2021/07/07 00:27:39;;;;;;;2.45;0.95;;;;;;;29.94;38.35;96497.22;4958704;28;20042;-36
2021/07/07 00:30:05;;;;;;;1.83;1.08;;;;;;;29.94;38.18;96491.94;4943235;28;20740;-29
2021/07/07 00:32:31;;;;;;;1.20;1.00;;;;;;;29.94;38.59;96497.22;4951789;28;20042;-30
2021/07/07 00:34:56;;;;;;;3.55;0.90;;;;;;;29.94;38.48;96497.22;4949926;28;20034;-33
2021/07/07 00:37:22;;;;;;;2.25;1.10;;;;;;;29.94;38.33;96502.50;4950201;28;20034;-33
2021/07/07 00:39:47;;;;;;;2.10;0.90;;;;;;;29.95;38.13;96498.91;4952023;28;20030;-34
2021/07/07 00:42:13;;;;;;;3.45;0.90;;;;;;;29.95;38.42;96501.56;4944216;28;20037;-31
2021/07/07 00:44:38;;;;;;;5.75;1.13;;;;;;;29.94;38.13;96494.59;4944892;28;20877;-33
2021/07/07 00:47:04;;;;;;;4.25;0.90;;;;;;;29.93;38.51;96490.28;4943173;28;22007;-33
2021/07/07 00:49:30;;;;;;;4.22;1.10;;;;;;;29.94;38.44;96497.22;4944516;28;20674;-31
2021/07/07 00:51:55;;;;;;;3.97;1.20;;;;;;;29.94;38.29;96493.78;4944309;28;20030;-31
2021/07/07 00:54:23;;;;;;;2.08;1.00;;;;;;;29.95;38.42;96487.53;4946013;28;20037;-34
2021/07/07 00:56:49;;;;;;;1.70;0.90;;;;;;;29.93;38.35;96490.28;4944780;28;20077;-28
2021/07/07 00:59:14;;;;;;;2.05;0.88;;;;;;;29.95;38.62;96482.22;4942817;28;20040;-30
2021/07/07 01:01:40;;;;;;;3.00;1.00;;;;;;;29.94;38.24;96484.03;4939021;28;20136;-35
2021/07/07 01:04:06;;;;;;;1.35;0.68;;;;;;;29.94;38.40;96488.47;4941210;28;20898;-31
2021/07/07 01:06:31;;;;;;;3.22;0.95;;;;;;;29.95;38.40;96493.63;4945757;28;20043;-34
2021/07/07 01:08:56;;;;;;;1.80;1.02;;;;;;;29.95;38.26;96492.81;4943630;28;20072;-31
2021/07/07 01:11:22;;;;;;;3.50;1.00;;;;;;;29.94;38.21;96491.94;4945584;28;20026;-30
2021/07/07 01:13:47;;;;;;;2.53;1.10;;;;;;;29.93;38.15;96500.84;4941836;28;20104;-29
2021/07/07 01:16:13;;;;;;;1.95;0.80;;;;;;;29.95;38.27;96498.91;4939590;28;20077;-31
2021/07/07 01:18:38;;;;;;;1.88;1.00;;;;;;;29.93;38.18;96492.91;4940835;28;20053;-32
2021/07/07 01:21:03;;;;;;;1.80;1.00;;;;;;;29.93;38.17;96484.13;4958404;28;20030;-32
2021/07/07 01:23:29;;;;;;;2.55;0.82;;;;;;;29.93;38.45;96474.41;4946539;28;20045;-34
2021/07/07 01:25:55;;;;;;;3.45;1.02;;;;;;;29.93;38.63;96463.84;4946316;28;20026;-32
2021/07/07 01:28:21;;;;;;;3.90;0.85;;;;;;;29.93;38.26;96474.41;4945599;28;20128;-34
2021/07/07 01:30:46;;;;;;;1.13;0.70;;;;;;;29.92;38.24;96472.75;4943483;28;20041;-33
2021/07/07 01:33:12;;;;;;;1.02;0.70;;;;;;;29.93;38.23;96476.22;4945086;28;20092;-32
2021/07/07 01:35:37;;;;;;;1.48;0.70;;;;;;;29.92;38.56;96480.66;4949235;28;20506;-29
2021/07/07 01:38:02;;;;;;;2.78;1.00;;;;;;;29.92;38.41;96485.94;4942665;28;20042;-32
2021/07/07 01:40:30;;;;;;;2.03;0.80;;;;;;;29.93;38.17;96486.78;4945237;28;20117;-33
2021/07/07 01:42:55;;;;;;;1.73;0.80;;;;;;;29.92;38.25;96491.25;4951087;28;20030;-35
2021/07/07 01:45:22;;;;;;;3.65;0.90;;;;;;;29.92;38.15;96501.81;4941809;28;20029;-31
2021/07/07 01:47:48;;;;;;;2.60;1.20;;;;;;;29.92;38.10;96508.88;4945772;28;20038;-38
2021/07/07 01:50:13;;;;;;;0.75;0.70;;;;;;;29.92;38.40;96509.72;4950818;28;20030;-32
2021/07/07 01:52:39;;;;;;;1.33;0.70;;;;;;;29.91;38.32;96508.06;4942584;28;20034;-35
2021/07/07 01:55:06;;;;;;;4.35;1.08;;;;;;;29.90;38.44;96501.06;4939474;28;20552;-29
2021/07/07 01:57:43;;;;;;;1.92;0.93;;;;;;;29.91;38.51;96500.13;4944156;28;20267;-31
2021/07/07 02:00:12;;;;;;;1.70;0.70;;;;;;;29.90;38.61;96501.06;4943334;28;20664;-30
2021/07/07 02:02:38;;;;;;;2.63;0.80;;;;;;;29.90;38.48;96501.06;4942531;28;20038;-34
2021/07/07 02:05:05;;;;;;;2.03;0.90;;;;;;;29.90;38.30;96501.06;4942318;28;20068;-33
2021/07/07 02:07:31;;;;;;;1.10;0.80;;;;;;;29.91;38.31;96502.78;4948509;28;20038;-31
2021/07/07 02:09:56;;;;;;;0.77;0.55;;;;;;;29.91;37.98;96521.25;4949783;28;20034;-31
2021/07/07 02:12:21;;;;;;;2.45;0.75;;;;;;;29.91;38.17;96505.41;4941004;28;21312;-33
2021/07/07 02:14:47;;;;;;;3.92;1.10;;;;;;;29.92;38.41;96504.44;4911934;28;20371;-32
2021/07/07 02:17:12;;;;;;;4.57;0.93;;;;;;;29.90;38.29;96493.13;4950429;28;20452;-32
2021/07/07 02:19:37;;;;;;;3.42;0.98;;;;;;;29.91;38.24;96497.50;4955594;28;20049;-36
2021/07/07 02:22:03;;;;;;;0.60;0.52;;;;;;;29.92;38.13;96509.72;4945082;28;20498;-36
2021/07/07 02:24:31;;;;;;;1.90;0.90;;;;;;;29.92;38.49;96508.88;4943886;28;20744;-35
2021/07/07 02:26:56;;;;;;;4.38;0.93;;;;;;;29.92;38.45;96509.72;4946058;28;20044;-37
2021/07/07 02:29:22;;;;;;;0.73;0.55;;;;;;;29.92;38.53;96508.88;4942719;28;20034;-32
2021/07/07 02:31:47;;;;;;;2.42;0.80;;;;;;;29.90;38.52;96498.41;4945967;28;20066;-34
2021/07/07 02:34:12;;;;;;;3.15;0.77;;;;;;;29.91;38.58;96499.28;4949258;28;20061;-29
2021/07/07 02:36:38;;;;;;;2.28;0.85;;;;;;;29.91;38.46;96505.41;4948775;28;20038;-37
2021/07/07 02:39:04;;;;;;;1.23;0.65;;;;;;;29.90;38.62;96495.78;4951820;28;20101;-30
2021/07/07 02:41:29;;;;;;;4.43;1.45;;;;;;;29.86;38.45;96486.41;4939030;28;20057;-32
2021/07/07 02:43:55;;;;;;;1.40;0.70;;;;;;;29.90;38.43;96502.88;4943159;28;20049;-32
2021/07/07 02:46:20;;;;;;;1.27;0.77;;;;;;;29.91;38.21;96513.34;4931529;28;20065;-33
2021/07/07 02:48:45;;;;;;;3.15;0.73;;;;;;;29.91;38.16;96523.03;4941852;28;20033;-31
2021/07/07 02:51:11;;;;;;;2.17;0.60;;;;;;;29.87;38.30;96522.44;4940913;28;20046;-38
2021/07/07 02:53:38;;;;;;;2.38;0.73;;;;;;;29.89;38.32;96531.09;4946756;28;20038;-29
2021/07/07 02:56:04;;;;;;;1.23;0.65;;;;;;;29.90;38.48;96527.47;4945916;28;20060;-29
2021/07/07 02:58:29;;;;;;;1.85;0.60;;;;;;;29.91;38.23;96510.69;4946570;28;20576;-31
2021/07/07 03:00:55;;;;;;;0.95;0.50;;;;;;;29.91;38.09;96476.34;4941733;28;20125;-31
2021/07/07 03:03:25;;;;;;;1.85;0.70;;;;;;;29.92;38.50;96456.03;4945698;28;20177;-34
2021/07/07 03:06:00;;;;;;;2.40;0.68;;;;;;;29.92;38.46;96443.69;4946107;28;20042;-32
2021/07/07 03:08:29;;;;;;;1.42;0.70;;;;;;;29.91;38.37;96484.28;4942855;28;20033;-36
2021/07/07 03:10:55;;;;;;;1.60;0.60;;;;;;;29.92;38.50;96536.16;4938331;28;20058;-32
2021/07/07 03:13:23;;;;;;;1.40;0.57;;;;;;;29.91;38.11;96545.03;4938521;28;22334;-32
2021/07/07 03:15:49;;;;;;;2.22;0.70;;;;;;;29.92;38.44;96536.16;4941607;28;20030;-36
2021/07/07 03:18:14;;;;;;;1.45;0.60;;;;;;;29.90;38.43;96543.31;4957063;28;20858;-29
2021/07/07 03:20:41;;;;;;;1.65;0.57;;;;;;;29.91;38.14;96539.75;4948389;28;20101;-37
2021/07/07 03:23:06;;;;;;;2.83;0.68;;;;;;;29.91;38.26;96538.91;4949821;28;20796;-33
2021/07/07 03:25:34;;;;;;;1.33;0.55;;;;;;;29.90;38.26;96545.97;4944258;28;20225;-34
2021/07/07 03:27:59;;;;;;;0.63;0.45;;;;;;;29.91;38.75;96547.69;4954235;28;20940;-31
2021/07/07 03:30:25;;;;;;;0.70;0.50;;;;;;;29.90;38.51;96543.31;4953001;28;20035;-33
2021/07/07 03:32:52;;;;;;;1.23;0.68;;;;;;;29.91;38.15;96547.69;4952266;28;20061;-36
2021/07/07 03:35:17;;;;;;;1.48;0.55;;;;;;;29.90;38.47;96543.31;4956484;28;20026;-27
2021/07/07 03:37:43;;;;;;;2.20;0.70;;;;;;;29.86;38.49;96542.72;4949183;28;20029;-34
2021/07/07 03:40:09;;;;;;;1.77;0.63;;;;;;;29.91;38.05;96544.19;4947488;28;20044;-32
2021/07/07 03:42:34;;;;;;;0.98;0.40;;;;;;;29.90;38.27;96543.31;4949119;28;20042;-32
2021/07/07 03:44:59;;;;;;;2.55;0.52;;;;;;;29.90;38.13;96538.03;4948793;28;20037;-33
2021/07/07 03:47:29;;;;;;;0.82;0.57;;;;;;;29.90;38.45;96526.66;4944323;28;20656;-35
2021/07/07 03:49:54;;;;;;;0.75;0.40;;;;;;;29.90;38.37;96519.56;4946708;28;21060;-27
2021/07/07 03:52:20;;;;;;;1.05;0.60;;;;;;;29.89;38.16;96509.94;4945959;28;20046;-31
2021/07/07 03:54:45;;;;;;;0.98;0.50;;;;;;;29.90;38.53;96516.91;4945404;28;20042;-31
2021/07/07 03:57:10;;;;;;;0.93;0.50;;;;;;;29.91;38.23;96507.19;4946173;28;20715;-33
2021/07/07 03:59:36;;;;;;;2.92;0.75;;;;;;;29.90;38.46;96506.34;4941891;28;20124;-29
2021/07/07 04:02:02;;;;;;;1.05;0.60;;;;;;;29.90;38.24;96506.34;4942633;28;20042;-31
2021/07/07 04:04:27;;;;;;;2.08;0.50;;;;;;;29.88;38.61;96513.56;4950961;28;20036;-32
2021/07/07 04:06:57;;;;;;;0.77;0.43;;;;;;;29.90;38.20;96531.94;4951898;28;21729;-30
2021/07/07 04:09:25;;;;;;;0.73;0.43;;;;;;;29.89;38.05;96536.38;4947652;28;20030;-37
2021/07/07 04:11:50;;;;;;;1.15;0.50;;;;;;;29.90;38.58;96553.91;4944348;28;20052;-30
2021/07/07 04:14:22;;;;;;;1.70;0.70;;;;;;;29.89;38.57;96562.78;4945245;28;21608;-31
2021/07/07 04:16:48;;;;;;;0.45;0.40;;;;;;;29.89;38.48;96551.34;4943807;28;20937;-28
2021/07/07 04:19:13;;;;;;;1.13;0.50;;;;;;;29.89;38.42;96560.13;4945006;28;20035;-30
2021/07/07 04:21:39;;;;;;;0.98;0.55;;;;;;;29.89;38.29;96552.22;4946928;28;20042;-27
2021/07/07 04:24:04;;;;;;;2.28;0.80;;;;;;;29.90;38.56;96558.34;4946448;28;20551;-29
2021/07/07 04:26:29;;;;;;;0.98;0.50;;;;;;;29.89;38.25;96552.22;4946973;28;20128;-29
2021/07/07 04:28:55;;;;;;;0.68;0.47;;;;;;;29.89;38.37;96546.06;4942790;28;20061;-37
2021/07/07 04:31:21;;;;;;;1.40;0.70;;;;;;;29.89;38.19;96559.28;4944041;28;20630;-33
2021/07/07 04:33:47;;;;;;;2.03;0.60;;;;;;;29.88;38.22;96566.38;4944001;28;20089;-35
2021/07/07 04:36:12;;;;;;;0.32;0.30;;;;;;;29.87;38.32;96570.00;4948115;28;20733;-33
2021/07/07 04:38:37;;;;;;;1.27;0.52;;;;;;;29.89;38.28;96572.50;4952425;28;20812;-35
2021/07/07 04:41:03;;;;;;;0.73;0.45;;;;;;;29.89;38.40;96572.50;4946072;28;20023;-35
2021/07/07 04:43:28;;;;;;;1.13;0.47;;;;;;;29.88;38.33;96566.38;4950913;28;20053;-31
2021/07/07 04:45:53;;;;;;;0.88;0.45;;;;;;;29.88;38.31;96561.09;4945451;28;21103;-33
2021/07/07 04:48:19;;;;;;;1.90;0.60;;;;;;;29.88;38.37;96561.09;4947226;28;20096;-35
2021/07/07 04:50:44;;;;;;;0.95;0.52;;;;;;;29.88;38.25;96571.66;4945900;28;20834;-31
2021/07/07 04:53:10;;;;;;;1.20;0.40;;;;;;;29.88;38.32;96568.16;4950156;28;20559;-35
2021/07/07 04:55:35;;;;;;;1.95;0.45;;;;;;;29.87;38.11;96564.72;4947651;28;20034;-35
2021/07/07 04:58:00;;;;;;;1.30;0.57;;;;;;;29.88;38.24;96554.97;4953438;28;20038;-31
2021/07/07 05:00:26;;;;;;;1.30;0.50;;;;;;;29.88;38.47;96561.09;4942579;28;20046;-29
2021/07/07 05:02:51;;;;;;;1.95;0.63;;;;;;;29.88;38.14;96573.47;4944980;28;20080;-35
2021/07/07 05:05:18;;;;;;;0.98;0.40;;;;;;;29.88;38.34;96581.38;4941994;28;20081;-28
2021/07/07 05:07:45;;;;;;;0.52;0.30;;;;;;;29.87;38.42;96591.13;4943025;28;20044;-30
2021/07/07 05:10:11;;;;;;;0.47;0.20;;;;;;;29.87;38.24;96601.69;4946056;28;20036;-30
2021/07/07 05:12:37;;;;;;;0.73;0.50;;;;;;;29.86;38.29;96607.91;4940993;28;20023;-36
2021/07/07 05:15:03;;;;;;;0.63;0.55;;;;;;;29.87;38.16;96609.63;4941298;28;20033;-28
2021/07/07 05:17:28;;;;;;;0.60;0.40;;;;;;;29.82;38.22;96606.44;4944963;28;20031;-30
2021/07/07 05:19:54;;;;;;;0.40;0.38;;;;;;;29.85;38.12;96603.59;4941837;28;20125;-31
2021/07/07 05:22:19;;;;;;;0.50;0.50;;;;;;;29.85;38.00;96611.50;4946603;28;20108;-28
2021/07/07 05:24:45;;;;;;;1.08;0.40;;;;;;;29.86;38.51;96610.53;4945187;28;20026;-32
2021/07/07 05:27:11;;;;;;;1.25;0.63;;;;;;;29.86;38.51;96605.25;4943993;28;20043;-33
2021/07/07 05:29:36;;;;;;;1.38;0.40;;;;;;;29.85;38.48;96599.16;4949864;28;20030;-28
2021/07/07 05:32:02;;;;;;;0.30;0.30;;;;;;;29.85;38.57;96596.50;4945443;28;20034;-29
2021/07/07 05:34:27;;;;;;;1.27;0.40;;;;;;;29.85;38.24;96606.22;4943749;28;20084;-33
2021/07/07 05:36:53;;;;;;;0.70;0.40;;;;;;;29.86;38.47;96613.19;4941598;28;20903;-31
2021/07/07 05:39:18;;;;;;;1.02;0.40;;;;;;;29.85;38.40;96630.00;4941483;28;20030;-31
2021/07/07 05:41:43;;;;;;;1.65;0.50;;;;;;;29.84;38.17;96637.09;4943287;28;21066;-29
2021/07/07 05:44:09;;;;;;;0.70;0.47;;;;;;;29.85;38.25;96627.34;4951978;28;20034;-32
2021/07/07 05:46:34;;;;;;;2.55;0.35;;;;;;;29.85;38.45;96624.72;4941733;28;20053;-29
2021/07/07 05:49:00;;;;;;;0.73;0.43;;;;;;;29.84;38.52;96617.75;4941336;28;20501;-33
2021/07/07 05:51:25;;;;;;;0.98;0.50;;;;;;;29.84;38.45;96626.53;4943553;28;20624;-29
2021/07/07 05:53:50;;;;;;;0.25;0.13;;;;;;;29.84;38.61;96630.97;4946111;28;20760;-30
2021/07/07 05:56:16;;;;;;;1.98;0.55;;;;;;;29.84;38.58;96623.03;4943157;28;20190;-32
2021/07/07 05:58:41;;;;;;;2.88;0.43;;;;;;;29.84;38.48;96623.03;4944255;28;20623;-31
2021/07/07 06:01:07;;;;;;;2.47;0.45;;;;;;;29.84;38.38;96615.97;4941860;28;20043;-33
2021/07/07 06:03:32;;;;;;;1.10;0.40;;;;;;;29.84;38.61;96623.03;4946248;28;20026;-28
2021/07/07 06:05:58;;;;;;;0.30;0.30;;;;;;;29.83;38.32;96618.72;4941630;28;20057;-29
2021/07/07 06:08:23;;;;;;;1.20;0.40;;;;;;;29.83;38.25;96606.34;4939756;28;20022;-28
2021/07/07 06:10:48;;;;;;;0.30;0.30;;;;;;;29.84;38.71;96625.69;4944874;28;20564;-29
2021/07/07 06:13:14;;;;;;;1.48;0.40;;;;;;;29.83;38.54;96621.34;4942487;28;20373;-28
2021/07/07 06:15:42;;;;;;;2.25;0.40;;;;;;;29.83;38.46;96605.50;4948468;28;20559;-32
2021/07/07 06:18:07;;;;;;;0.63;0.43;;;;;;;29.82;38.67;96609.06;4942584;28;20044;-34
2021/07/07 06:20:34;;;;;;;0.60;0.25;;;;;;;29.82;38.28;96609.94;4941457;28;20807;-29
2021/07/07 06:22:59;;;;;;;1.88;0.40;;;;;;;29.83;38.32;96613.44;4946702;28;20109;-37
2021/07/07 06:25:25;;;;;;;0.85;0.50;;;;;;;29.82;38.61;96631.06;4943859;28;20333;-31
2021/07/07 06:27:50;;;;;;;0.20;0.20;;;;;;;29.82;38.17;96643.41;4946401;28;20046;-29
2021/07/07 06:30:18;;;;;;;5.32;0.68;;;;;;;29.83;38.21;96647.78;4937734;28;20030;-37
2021/07/07 06:32:44;;;;;;;8.02;1.30;;;;;;;29.83;37.99;96643.31;4945325;28;20564;-29
2021/07/07 06:35:10;;;;;;;13.77;1.13;;;;;;;29.82;38.16;96646.06;4945689;28;20096;-31
2021/07/07 06:37:35;;;;;;;6.50;1.08;;;;;;;29.82;38.11;96659.25;4950054;28;20544;-34
2021/07/07 06:40:04;;;;;;;3.22;1.13;;;;;;;29.82;38.19;96653.97;4945690;28;20035;-32
2021/07/07 06:42:30;;;;;;;3.95;0.90;;;;;;;29.83;38.04;96653.06;4944942;28;20039;-33
2021/07/07 06:44:56;;;;;;;11.80;1.88;;;;;;;29.83;37.94;96668.91;4950389;28;20068;-31
2021/07/07 06:47:21;;;;;;;5.22;1.33;;;;;;;29.82;38.22;96669.84;4949785;28;20030;-32
2021/07/07 06:49:47;;;;;;;7.38;2.30;;;;;;;29.82;38.08;96672.47;4948706;28;20037;-31
2021/07/07 06:52:12;;;;;;;7.18;2.38;;;;;;;29.82;37.86;96680.41;4957343;28;20030;-34
2021/07/07 06:54:37;;;;;;;8.68;2.28;;;;;;;29.81;38.07;96686.63;4955488;28;20026;-32
2021/07/07 06:57:03;;;;;;;7.70;2.10;;;;;;;29.81;37.98;96692.78;4954351;28;20382;-34
2021/07/07 06:59:28;;;;;;;6.82;2.30;;;;;;;29.82;38.21;96701.53;4931827;28;20109;-38
2021/07/07 07:01:54;;;;;;;6.45;2.28;;;;;;;29.81;38.16;96702.50;4925374;28;20042;-33
2021/07/07 07:04:20;;;;;;;11.75;2.63;;;;;;;29.81;38.34;96705.13;4958633;28;20318;-33
2021/07/07 07:06:46;;;;;;;7.55;2.53;;;;;;;29.81;37.89;96719.19;4952541;28;20041;-31
2021/07/07 07:09:12;;;;;;;9.10;2.47;;;;;;;29.81;38.12;96718.34;4949771;28;20150;-36
2021/07/07 07:11:39;;;;;;;7.10;2.42;;;;;;;29.81;37.97;96713.06;4949464;28;20619;-32
2021/07/07 07:14:05;;;;;;;7.03;2.13;;;;;;;29.81;38.00;96711.28;4951653;28;20059;-30
2021/07/07 07:16:30;;;;;;;8.63;3.10;;;;;;;29.81;38.03;96708.63;4952630;28;20084;-32
2021/07/07 07:18:55;;;;;;;7.05;2.53;;;;;;;29.82;38.03;96714.72;4954025;28;20030;-33
2021/07/07 07:21:21;;;;;;;7.95;2.53;;;;;;;29.82;37.97;96706.81;4951735;28;20886;-30
2021/07/07 07:23:46;;;;;;;3.72;1.60;;;;;;;29.82;37.68;96712.94;4949925;28;20660;-31
2021/07/07 07:26:12;;;;;;;4.57;1.60;;;;;;;29.82;37.79;96709.44;4952438;28;20782;-35
2021/07/07 07:28:37;;;;;;;3.90;1.77;;;;;;;29.79;37.55;96694.66;4950058;28;20870;-28
2021/07/07 07:31:03;;;;;;;5.32;2.20;;;;;;;29.80;37.78;96700.81;4949800;28;20705;-29
2021/07/07 07:33:28;;;;;;;4.93;2.35;;;;;;;29.79;37.58;96693.84;4951398;28;20608;-35
2021/07/07 07:35:53;;;;;;;7.20;2.50;;;;;;;29.79;38.01;96709.69;4953684;28;20971;-30
2021/07/07 07:38:27;;;;;;;11.63;2.70;;;;;;;29.78;37.72;96708.00;4950121;28;20895;-29
2021/07/07 07:40:52;;;;;;;10.43;2.65;;;;;;;29.77;38.06;96701.00;4947414;28;20604;-31
2021/07/07 07:43:19;;;;;;;5.05;2.30;;;;;;;29.77;37.99;96701.88;4948504;28;20045;-35
2021/07/07 07:45:45;;;;;;;7.65;2.20;;;;;;;29.77;38.21;96693.09;4952724;28;20729;-27
2021/07/07 07:48:10;;;;;;;10.05;2.70;;;;;;;29.77;38.03;96703.66;4948477;28;20098;-34
2021/07/07 07:50:38;;;;;;;7.68;2.38;;;;;;;29.76;37.99;96709.91;4953946;28;20030;-32
2021/07/07 07:53:03;;;;;;;6.25;2.47;;;;;;;29.77;38.10;96711.59;4950921;28;20053;-31
2021/07/07 07:55:29;;;;;;;7.45;2.60;;;;;;;29.76;38.08;96720.47;4945691;28;20824;-30
2021/07/07 07:57:54;;;;;;;5.50;2.15;;;;;;;29.76;38.01;96716.03;4956090;28;20117;-29
2021/07/07 08:00:23;;;;;;;6.55;1.92;;;;;;;29.77;38.19;96730.94;4948731;28;20037;-30
2021/07/07 08:02:49;;;;;;;6.00;2.00;;;;;;;29.77;37.74;96743.28;4952215;28;20069;-31
2021/07/07 08:05:14;;;;;;;4.88;2.28;;;;;;;29.77;38.15;96745.91;4949843;28;20033;-36
2021/07/07 08:07:41;;;;;;;3.38;1.60;;;;;;;29.75;37.63;96750.47;4953007;28;20039;-33
2021/07/07 08:10:07;;;;;;;3.17;1.40;;;;;;;29.69;35.86;96751.75;4950590;28;20030;-28
2021/07/07 08:12:33;;;;;;;3.80;1.60;;;;;;;29.58;35.01;96755.13;4935807;28;20047;-34
2021/07/07 08:14:58;;;;;;;8.70;1.65;;;;;;;29.46;34.89;96757.66;4951987;28;20929;-30
2021/07/07 08:17:23;;;;;;;8.02;2.30;;;;;;;29.35;34.89;96765.47;4955620;28;20030;-34
2021/07/07 08:19:49;;;;;;;5.80;1.67;;;;;;;29.23;35.17;96750.47;4950258;28;20286;-31
2021/07/07 08:22:16;;;;;;;4.65;1.90;;;;;;;29.16;35.25;96755.31;4951622;28;20070;-29
2021/07/07 08:24:41;;;;;;;5.25;1.90;;;;;;;29.12;35.48;96749.41;4954531;28;20323;-32
2021/07/07 08:27:08;;;;;;;4.45;1.50;;;;;;;29.08;35.81;96743.50;4951939;28;20445;-33
2021/07/07 08:29:34;;;;;;;5.70;1.80;;;;;;;29.08;35.90;96747.91;4949924;28;20030;-29
2021/07/07 08:31:59;;;;;;;5.88;1.75;;;;;;;29.08;35.79;96747.91;4948345;28;20034;-30
2021/07/07 08:34:25;;;;;;;5.22;1.88;;;;;;;29.08;36.04;96742.63;4957353;28;20661;-31
2021/07/07 08:36:50;;;;;;;4.38;1.52;;;;;;;29.09;36.25;96749.59;4948548;28;20030;-38
2021/07/07 08:39:15;;;;;;;4.57;1.60;;;;;;;29.08;36.24;96754.06;4957223;28;20035;-32
2021/07/07 08:41:41;;;;;;;3.38;1.33;;;;;;;29.07;36.27;96762.88;4953064;28;20827;-36
2021/07/07 08:44:07;;;;;;;4.82;1.55;;;;;;;29.09;36.74;96754.88;4952947;28;20572;-31
2021/07/07 08:46:33;;;;;;;4.80;1.13;;;;;;;29.15;36.71;96748.34;4951353;28;20069;-32
2021/07/07 08:48:59;;;;;;;7.38;1.20;;;;;;;29.20;36.66;96752.38;4951779;28;20060;-37
2021/07/07 08:51:24;;;;;;;3.15;1.50;;;;;;;29.30;36.79;96743.81;4944727;28;20707;-32
2021/07/07 08:53:50;;;;;;;2.30;1.10;;;;;;;29.40;36.39;96731.66;4943055;28;20583;-35
2021/07/07 08:56:15;;;;;;;4.88;1.38;;;;;;;29.51;36.31;96743.28;4945771;28;20038;-36
2021/07/07 08:58:40;;;;;;;4.05;1.50;;;;;;;29.62;36.58;96761.91;4941876;28;20704;-33
2021/07/07 09:01:06;;;;;;;4.53;1.58;;;;;;;29.73;36.72;96759.34;4949262;28;20042;-31
2021/07/07 09:03:31;;;;;;;4.22;1.60;;;;;;;29.85;36.28;96746.22;4948015;28;20030;-33
2021/07/07 09:05:58;;;;;;;3.78;1.42;;;;;;;29.97;36.25;96749.78;4947243;28;20053;-35
2021/07/07 09:08:35;;;;;;;2.63;1.63;;;;;;;30.06;36.04;96749.13;4944478;28;20533;-29
2021/07/07 09:11:25;;;;;;;5.50;1.33;;;;;;;30.14;35.72;96753.91;4938459;28;20033;-31
2021/07/07 09:14:06;;;;;;;3.38;1.15;;;;;;;30.20;35.95;96755.25;4937592;28;20046;-29
2021/07/07 09:16:50;;;;;;;7.43;2.58;;;;;;;30.24;35.48;96756.72;4942096;28;20650;-31
2021/07/07 09:19:20;;;;;;;9.52;2.22;;;;;;;30.27;35.20;96768.88;4939558;28;20147;-33
2021/07/07 09:21:53;;;;;;;14.40;2.58;;;;;;;30.28;35.34;96775.84;4939488;28;20036;-30
2021/07/07 09:24:21;;;;;;;5.50;1.80;;;;;;;30.28;35.13;96773.22;4940777;28;20331;-28
2021/07/07 09:26:56;;;;;;;5.90;1.85;;;;;;;30.21;35.60;96764.88;4942956;28;21067;-32
2021/07/07 09:29:46;;;;;;;8.73;1.95;;;;;;;30.26;35.21;96762.75;4944454;28;20034;-32
2021/07/07 09:32:22;;;;;;;7.18;2.10;;;;;;;30.24;35.41;96773.44;4954427;28;20155;-31
2021/07/07 09:34:50;;;;;;;7.22;1.83;;;;;;;30.22;35.49;96780.63;4964251;28;21466;-33
2021/07/07 09:37:32;;;;;;;3.92;1.73;;;;;;;30.20;35.57;96787.81;4939742;28;20164;-34
2021/07/07 09:39:57;;;;;;;;;;;;;;;30.18;35.23;96784.47;4942507;28;20419;-32
2021/07/07 09:42:27;;;;;;;8.82;1.77;;;;;;;30.16;35.42;96796.91;4940140;28;19925;-29
2021/07/07 09:44:53;;;;;;;6.95;1.55;;;;;;;30.10;35.66;96794.69;4947380;28;20029;-31
2021/07/07 09:47:19;;;;;;;3.70;1.30;;;;;;;30.11;35.85;96804.31;4956272;28;20029;-31
2021/07/07 09:49:48;;;;;;;6.38;1.52;;;;;;;30.05;35.61;96794.19;4945402;28;20038;-31
2021/07/07 09:52:17;;;;;;;6.07;1.40;;;;;;;30.07;35.54;96800.19;4938660;28;20030;-28
2021/07/07 09:54:43;;;;;;;3.72;1.30;;;;;;;30.04;35.89;96790.69;4942049;28;20022;-30
2021/07/07 09:57:48;;;;;;;3.13;1.35;;;;;;;30.04;35.89;96790.69;4941463;28;21019;-28
2021/07/07 10:01:15;;;;;;;2.05;1.00;;;;;;;-148.56;100.00;61375.16;4956370;28;20037;-28
2021/07/07 10:04:42;;;;;;;2.58;1.45;;;;;;;-148.56;100.00;61375.16;4940993;28;20045;-34
2021/07/07 10:08:09;;;;;;;2.03;1.20;;;;;;;-148.56;100.00;61375.16;4945015;28;20105;-28
2021/07/07 10:11:34;;;;;;;4.38;1.35;;;;;;;-148.56;100.00;61375.16;4941515;28;20030;-28
2021/07/07 10:14:58;;;;;;;4.13;1.30;;;;;;;-148.56;100.00;61375.16;4938044;28;20232;-26
2021/07/07 10:18:22;;;;;;;2.65;1.10;;;;;;;-148.56;100.00;61375.16;4949177;28;20493;-29
2021/07/07 10:21:46;;;;;;;2.85;1.10;;;;;;;-148.56;100.00;61375.16;4936087;28;20066;-32
2021/07/07 10:25:11;;;;;;;2.85;1.27;;;;;;;-148.56;100.00;61375.16;4942083;28;20031;-33
2021/07/07 10:28:35;;;;;;;2.22;0.90;;;;;;;-148.56;100.00;61375.16;4938472;28;20027;-27
2021/07/07 10:32:00;;;;;;;2.95;1.10;;;;;;;-148.56;100.00;61375.16;4951660;28;20756;-29
2021/07/07 10:35:24;;;;;;;3.20;0.90;;;;;;;-148.56;100.00;61375.16;4947561;28;23333;-27
2021/07/07 10:38:52;;;;;;;2.42;1.00;;;;;;;-148.56;100.00;61375.16;4946904;28;20065;-30
2021/07/07 10:42:46;;;;;;;2.35;1.08;;;;;;;-148.56;100.00;61375.16;4940304;28;20049;-32
2021/07/07 10:45:31;;;;;;;3.95;0.90;;;;;;;29.73;36.88;96809.53;4940561;28;20301;-28
2021/07/07 10:48:29;;;;;;;2.00;1.00;;;;;;;29.70;36.74;96812.38;4949790;28;20121;-32
2021/07/07 10:50:56;;;;;;;2.72;1.00;;;;;;;29.69;36.95;96810.69;4937258;28;20030;-27
2021/07/07 10:53:23;;;;;;;2.42;1.10;;;;;;;29.68;36.89;96802.88;4941456;28;20096;-28
2021/07/07 10:55:51;;;;;;;3.50;1.00;;;;;;;29.65;36.93;96803.94;4950947;28;20034;-30
2021/07/07 10:58:29;;;;;;;1.60;0.93;;;;;;;29.67;37.00;96809.94;4937785;28;20121;-26
2021/07/07 11:00:54;;;;;;;2.33;1.10;;;;;;;29.67;37.09;96801.19;4939258;28;20069;-32
2021/07/07 11:03:31;;;;;;;1.35;0.75;;;;;;;29.67;36.93;96807.31;4939974;28;20057;-33
2021/07/07 11:06:17;;;;;;;1.60;0.70;;;;;;;29.67;37.14;96809.94;4943805;28;20071;-27
2021/07/07 11:08:42;;;;;;;3.03;0.88;;;;;;;29.67;37.13;96799.38;4939170;28;20034;-30
2021/07/07 11:11:12;;;;;;;1.10;0.90;;;;;;;29.67;37.27;96795.91;4941350;28;20064;-32
2021/07/07 11:13:42;;;;;;;2.25;1.20;;;;;;;29.67;37.14;96799.38;4950507;28;20026;-30
2021/07/07 11:16:08;;;;;;;3.17;0.98;;;;;;;29.67;37.22;96796.75;4947523;28;20560;-31
2021/07/07 11:18:34;;;;;;;3.10;0.90;;;;;;;29.68;37.21;96794.97;4940905;28;20033;-27
2021/07/07 11:21:01;;;;;;;1.75;0.88;;;;;;;29.68;37.24;96803.72;4939393;28;20457;-35
2021/07/07 11:23:26;;;;;;;0.77;0.55;;;;;;;29.69;37.31;96800.13;4943722;28;20066;-32
2021/07/07 11:25:52;;;;;;;1.95;0.80;;;;;;;29.68;37.11;96803.72;4939701;28;20093;-35
2021/07/07 11:28:18;;;;;;;1.98;1.05;;;;;;;29.68;36.97;96798.44;4946750;28;20034;-28
2021/07/07 11:30:43;;;;;;;1.75;0.80;;;;;;;29.70;37.23;96798.31;4942775;28;20128;-27
2021/07/07 11:33:09;;;;;;;2.25;0.90;;;;;;;29.70;37.05;96790.41;4947878;28;20030;-28
2021/07/07 11:35:41;;;;;;;2.03;0.93;;;;;;;29.70;37.29;96787.75;4950725;28;20038;-31
2021/07/07 11:38:13;;;;;;;1.75;0.80;;;;;;;29.70;37.31;96795.69;4940217;28;22603;-27
2021/07/07 11:40:42;;;;;;;1.65;0.70;;;;;;;29.70;37.19;96785.97;4942654;28;20022;-30
2021/07/07 11:43:09;;;;;;;2.28;0.88;;;;;;;29.71;37.31;96786.84;4951265;28;20057;-30